sensor_id;sensor_type;location;lat;lon;timestamp;P1;durP1;ratioP1;P2;durP2;ratioP2
20241;SDS011;10279;46.388;8.116;2022-12-07T00:01:37;1.73;;;0.73;;
20241;SDS011;10279;46.388;8.116;2022-12-07T00:04:06;1.27;;;0.97;;
20241;SDS011;10279;46.388;8.116;2022-12-07T00:06:34;1.60;;;0.70;;
20241;SDS011;10279;46.388;8.116;2022-12-07T00:09:03;1.20;;;0.73;;
20241;SDS011;10279;46.388;8.116;2022-12-07T00:11:30;1.00;;;0.90;;
20241;SDS011;10279;46.388;8.116;2022-12-07T00:13:59;1.70;;;0.93;;
20241;SDS011;10279;46.388;8.116;2022-12-07T00:16:27;1.30;;;1.00;;
20241;SDS011;10279;46.388;8.116;2022-12-07T00:18:56;1.90;;;0.80;;
20241;SDS011;10279;46.388;8.116;2022-12-07T00:21:25;0.80;;;0.63;;
20241;SDS011;10279;46.388;8.116;2022-12-07T00:23:53;2.27;;;0.97;;
20241;SDS011;10279;46.388;8.116;2022-12-07T00:26:22;1.40;;;1.00;;
20241;SDS011;10279;46.388;8.116;2022-12-07T00:28:50;1.17;;;0.83;;
20241;SDS011;10279;46.388;8.116;2022-12-07T00:31:18;1.93;;;1.00;;
20241;SDS011;10279;46.388;8.116;2022-12-07T00:33:46;1.00;;;0.80;;
20241;SDS011;10279;46.388;8.116;2022-12-07T00:36:17;2.00;;;1.10;;
20241;SDS011;10279;46.388;8.116;2022-12-07T00:38:52;1.20;;;0.87;;
20241;SDS011;10279;46.388;8.116;2022-12-07T00:41:20;4.07;;;1.00;;
20241;SDS011;10279;46.388;8.116;2022-12-07T00:43:48;1.63;;;1.17;;
20241;SDS011;10279;46.388;8.116;2022-12-07T00:46:16;2.23;;;1.00;;
20241;SDS011;10279;46.388;8.116;2022-12-07T00:48:44;1.13;;;0.93;;
20241;SDS011;10279;46.388;8.116;2022-12-07T00:51:12;3.33;;;1.20;;
20241;SDS011;10279;46.388;8.116;2022-12-07T00:53:40;2.63;;;1.20;;
20241;SDS011;10279;46.388;8.116;2022-12-07T00:56:08;1.63;;;1.17;;
20241;SDS011;10279;46.388;8.116;2022-12-07T00:58:35;1.47;;;0.83;;
20241;SDS011;10279;46.388;8.116;2022-12-07T01:01:03;1.33;;;0.80;;
20241;SDS011;10279;46.388;8.116;2022-12-07T01:03:31;0.90;;;0.90;;
20241;SDS011;10279;46.388;8.116;2022-12-07T01:05:59;2.10;;;1.20;;
20241;SDS011;10279;46.388;8.116;2022-12-07T01:08:26;2.50;;;1.10;;
20241;SDS011;10279;46.388;8.116;2022-12-07T01:11:14;1.17;;;0.90;;
20241;SDS011;10279;46.388;8.116;2022-12-07T01:13:42;2.27;;;0.87;;
20241;SDS011;10279;46.388;8.116;2022-12-07T01:16:10;1.40;;;0.90;;
20241;SDS011;10279;46.388;8.116;2022-12-07T01:18:39;0.90;;;0.90;;
20241;SDS011;10279;46.388;8.116;2022-12-07T01:21:17;1.23;;;0.80;;
20241;SDS011;10279;46.388;8.116;2022-12-07T01:23:45;0.93;;;0.60;;
20241;SDS011;10279;46.388;8.116;2022-12-07T01:26:13;1.90;;;0.70;;
20241;SDS011;10279;46.388;8.116;2022-12-07T01:28:41;1.17;;;0.80;;
20241;SDS011;10279;46.388;8.116;2022-12-07T01:31:10;0.60;;;0.40;;
20241;SDS011;10279;46.388;8.116;2022-12-07T01:33:38;1.03;;;0.70;;
20241;SDS011;10279;46.388;8.116;2022-12-07T01:38:33;0.60;;;0.50;;
20241;SDS011;10279;46.388;8.116;2022-12-07T01:41:01;1.30;;;0.67;;
20241;SDS011;10279;46.388;8.116;2022-12-07T01:43:29;0.73;;;0.50;;
20241;SDS011;10279;46.388;8.116;2022-12-07T01:45:57;1.70;;;0.60;;
20241;SDS011;10279;46.388;8.116;2022-12-07T01:48:26;1.20;;;0.70;;
20241;SDS011;10279;46.388;8.116;2022-12-07T01:50:55;1.10;;;0.70;;
20241;SDS011;10279;46.388;8.116;2022-12-07T01:53:24;0.80;;;0.60;;
20241;SDS011;10279;46.388;8.116;2022-12-07T01:55:52;0.53;;;0.53;;
20241;SDS011;10279;46.388;8.116;2022-12-07T01:58:20;0.43;;;0.43;;
20241;SDS011;10279;46.388;8.116;2022-12-07T02:00:48;0.63;;;0.50;;
20241;SDS011;10279;46.388;8.116;2022-12-07T02:03:18;0.97;;;0.63;;
20241;SDS011;10279;46.388;8.116;2022-12-07T02:05:46;0.43;;;0.43;;
20241;SDS011;10279;46.388;8.116;2022-12-07T02:08:15;1.20;;;0.70;;
20241;SDS011;10279;46.388;8.116;2022-12-07T02:10:43;0.73;;;0.47;;
20241;SDS011;10279;46.388;8.116;2022-12-07T02:13:17;0.70;;;0.60;;
20241;SDS011;10279;46.388;8.116;2022-12-07T02:21:07;0.97;;;0.67;;
20241;SDS011;10279;46.388;8.116;2022-12-07T02:31:27;1.17;;;0.40;;
20241;SDS011;10279;46.388;8.116;2022-12-07T02:34:07;2.07;;;0.57;;
20241;SDS011;10279;46.388;8.116;2022-12-07T02:36:38;0.60;;;0.50;;
20241;SDS011;10279;46.388;8.116;2022-12-07T02:39:09;1.03;;;0.60;;
20241;SDS011;10279;46.388;8.116;2022-12-07T02:41:49;0.53;;;0.40;;
20241;SDS011;10279;46.388;8.116;2022-12-07T02:44:19;0.47;;;0.37;;
20241;SDS011;10279;46.388;8.116;2022-12-07T02:46:54;0.77;;;0.57;;
20241;SDS011;10279;46.388;8.116;2022-12-07T02:49:22;1.73;;;0.70;;
20241;SDS011;10279;46.388;8.116;2022-12-07T02:51:51;0.50;;;0.50;;
20241;SDS011;10279;46.388;8.116;2022-12-07T02:54:20;2.90;;;0.90;;
20241;SDS011;10279;46.388;8.116;2022-12-07T02:56:57;0.93;;;0.60;;
20241;SDS011;10279;46.388;8.116;2022-12-07T03:02:01;0.83;;;0.63;;
20241;SDS011;10279;46.388;8.116;2022-12-07T03:07:20;0.40;;;0.40;;
20241;SDS011;10279;46.388;8.116;2022-12-07T03:12:25;0.77;;;0.50;;
20241;SDS011;10279;46.388;8.116;2022-12-07T03:15:00;0.67;;;0.60;;
20241;SDS011;10279;46.388;8.116;2022-12-07T03:17:33;0.77;;;0.50;;
20241;SDS011;10279;46.388;8.116;2022-12-07T03:20:02;0.37;;;0.37;;
20241;SDS011;10279;46.388;8.116;2022-12-07T03:22:31;1.90;;;0.50;;
20241;SDS011;10279;46.388;8.116;2022-12-07T03:25:03;2.30;;;0.60;;
20241;SDS011;10279;46.388;8.116;2022-12-07T03:30:08;0.60;;;0.47;;
20241;SDS011;10279;46.388;8.116;2022-12-07T03:32:39;1.23;;;0.60;;
20241;SDS011;10279;46.388;8.116;2022-12-07T03:35:25;0.93;;;0.80;;
20241;SDS011;10279;46.388;8.116;2022-12-07T03:37:58;1.00;;;0.50;;
20241;SDS011;10279;46.388;8.116;2022-12-07T03:40:37;0.57;;;0.47;;
20241;SDS011;10279;46.388;8.116;2022-12-07T03:43:09;0.30;;;0.30;;
20241;SDS011;10279;46.388;8.116;2022-12-07T03:45:41;1.37;;;0.80;;
20241;SDS011;10279;46.388;8.116;2022-12-07T03:51:06;2.97;;;0.60;;
20241;SDS011;10279;46.388;8.116;2022-12-07T03:53:44;0.50;;;0.50;;
20241;SDS011;10279;46.388;8.116;2022-12-07T03:56:13;0.73;;;0.37;;
20241;SDS011;10279;46.388;8.116;2022-12-07T03:58:41;0.83;;;0.50;;
20241;SDS011;10279;46.388;8.116;2022-12-07T04:01:08;0.83;;;0.77;;
20241;SDS011;10279;46.388;8.116;2022-12-07T04:03:36;0.60;;;0.60;;
20241;SDS011;10279;46.388;8.116;2022-12-07T04:06:04;0.57;;;0.50;;
20241;SDS011;10279;46.388;8.116;2022-12-07T04:08:31;0.40;;;0.40;;
20241;SDS011;10279;46.388;8.116;2022-12-07T04:10:58;1.13;;;0.50;;
20241;SDS011;10279;46.388;8.116;2022-12-07T04:13:26;0.43;;;0.30;;
20241;SDS011;10279;46.388;8.116;2022-12-07T04:15:53;0.80;;;0.77;;
20241;SDS011;10279;46.388;8.116;2022-12-07T04:18:21;0.80;;;0.57;;
20241;SDS011;10279;46.388;8.116;2022-12-07T04:20:48;1.30;;;0.60;;
20241;SDS011;10279;46.388;8.116;2022-12-07T04:23:16;0.50;;;0.40;;
20241;SDS011;10279;46.388;8.116;2022-12-07T04:25:43;0.73;;;0.50;;
20241;SDS011;10279;46.388;8.116;2022-12-07T04:28:11;1.13;;;0.70;;
20241;SDS011;10279;46.388;8.116;2022-12-07T04:30:38;0.80;;;0.60;;
20241;SDS011;10279;46.388;8.116;2022-12-07T04:33:05;1.77;;;0.70;;
20241;SDS011;10279;46.388;8.116;2022-12-07T04:35:33;0.87;;;0.60;;
20241;SDS011;10279;46.388;8.116;2022-12-07T04:38:00;1.70;;;0.60;;
20241;SDS011;10279;46.388;8.116;2022-12-07T04:40:27;1.53;;;0.80;;
20241;SDS011;10279;46.388;8.116;2022-12-07T04:42:55;1.10;;;0.73;;
20241;SDS011;10279;46.388;8.116;2022-12-07T04:45:22;1.57;;;1.13;;
20241;SDS011;10279;46.388;8.116;2022-12-07T04:47:49;0.50;;;0.50;;
20241;SDS011;10279;46.388;8.116;2022-12-07T04:50:17;1.17;;;0.77;;
20241;SDS011;10279;46.388;8.116;2022-12-07T04:52:44;1.00;;;0.90;;
20241;SDS011;10279;46.388;8.116;2022-12-07T04:55:12;1.30;;;0.80;;
20241;SDS011;10279;46.388;8.116;2022-12-07T04:57:39;0.63;;;0.57;;
20241;SDS011;10279;46.388;8.116;2022-12-07T05:00:06;1.77;;;1.00;;
20241;SDS011;10279;46.388;8.116;2022-12-07T05:02:34;0.90;;;0.70;;
20241;SDS011;10279;46.388;8.116;2022-12-07T05:05:01;2.00;;;0.70;;
20241;SDS011;10279;46.388;8.116;2022-12-07T05:07:29;0.80;;;0.60;;
20241;SDS011;10279;46.388;8.116;2022-12-07T05:09:56;3.10;;;0.80;;
20241;SDS011;10279;46.388;8.116;2022-12-07T05:12:24;1.60;;;0.97;;
20241;SDS011;10279;46.388;8.116;2022-12-07T05:14:51;1.77;;;1.00;;
20241;SDS011;10279;46.388;8.116;2022-12-07T05:17:19;2.50;;;1.40;;
20241;SDS011;10279;46.388;8.116;2022-12-07T05:19:46;5.23;;;1.60;;
20241;SDS011;10279;46.388;8.116;2022-12-07T05:22:14;4.80;;;1.23;;
20241;SDS011;10279;46.388;8.116;2022-12-07T05:24:41;2.30;;;1.20;;
20241;SDS011;10279;46.388;8.116;2022-12-07T05:27:11;1.73;;;0.90;;
20241;SDS011;10279;46.388;8.116;2022-12-07T05:29:39;3.73;;;1.10;;
20241;SDS011;10279;46.388;8.116;2022-12-07T05:32:06;2.07;;;1.00;;
20241;SDS011;10279;46.388;8.116;2022-12-07T05:34:34;1.70;;;0.90;;
20241;SDS011;10279;46.388;8.116;2022-12-07T05:37:04;1.10;;;0.80;;
20241;SDS011;10279;46.388;8.116;2022-12-07T05:39:31;1.40;;;1.10;;
20241;SDS011;10279;46.388;8.116;2022-12-07T05:41:59;3.77;;;1.87;;
20241;SDS011;10279;46.388;8.116;2022-12-07T05:44:45;2.43;;;1.70;;
20241;SDS011;10279;46.388;8.116;2022-12-07T05:47:13;2.47;;;1.10;;
20241;SDS011;10279;46.388;8.116;2022-12-07T05:49:41;1.67;;;0.80;;
20241;SDS011;10279;46.388;8.116;2022-12-07T05:52:08;3.97;;;1.20;;
20241;SDS011;10279;46.388;8.116;2022-12-07T05:54:36;1.60;;;0.97;;
20241;SDS011;10279;46.388;8.116;2022-12-07T05:57:03;1.13;;;0.90;;
20241;SDS011;10279;46.388;8.116;2022-12-07T05:59:30;1.83;;;1.00;;
20241;SDS011;10279;46.388;8.116;2022-12-07T06:02:08;1.23;;;1.00;;
20241;SDS011;10279;46.388;8.116;2022-12-07T06:04:38;2.97;;;1.00;;
20241;SDS011;10279;46.388;8.116;2022-12-07T06:07:05;2.37;;;1.20;;
20241;SDS011;10279;46.388;8.116;2022-12-07T06:09:33;1.57;;;1.00;;
20241;SDS011;10279;46.388;8.116;2022-12-07T06:12:01;1.67;;;0.90;;
20241;SDS011;10279;46.388;8.116;2022-12-07T06:14:47;2.77;;;1.50;;
20241;SDS011;10279;46.388;8.116;2022-12-07T06:17:15;1.83;;;1.10;;
20241;SDS011;10279;46.388;8.116;2022-12-07T06:19:42;4.87;;;1.40;;
20241;SDS011;10279;46.388;8.116;2022-12-07T06:22:10;1.87;;;1.20;;
20241;SDS011;10279;46.388;8.116;2022-12-07T06:24:38;2.63;;;1.47;;
20241;SDS011;10279;46.388;8.116;2022-12-07T06:27:06;2.13;;;1.30;;
20241;SDS011;10279;46.388;8.116;2022-12-07T06:29:33;2.93;;;1.67;;
20241;SDS011;10279;46.388;8.116;2022-12-07T06:32:00;3.77;;;1.40;;
20241;SDS011;10279;46.388;8.116;2022-12-07T06:34:28;3.03;;;1.57;;
20241;SDS011;10279;46.388;8.116;2022-12-07T06:36:56;2.70;;;1.50;;
20241;SDS011;10279;46.388;8.116;2022-12-07T06:39:24;2.50;;;1.40;;
20241;SDS011;10279;46.388;8.116;2022-12-07T06:41:52;1.30;;;1.00;;
20241;SDS011;10279;46.388;8.116;2022-12-07T06:44:20;1.50;;;0.97;;
20241;SDS011;10279;46.388;8.116;2022-12-07T06:46:48;1.93;;;1.10;;
20241;SDS011;10279;46.388;8.116;2022-12-07T06:49:15;1.50;;;1.30;;
20241;SDS011;10279;46.388;8.116;2022-12-07T06:51:43;1.23;;;0.93;;
20241;SDS011;10279;46.388;8.116;2022-12-07T06:54:11;2.23;;;1.33;;
20241;SDS011;10279;46.388;8.116;2022-12-07T06:56:39;10.00;;;1.40;;
20241;SDS011;10279;46.388;8.116;2022-12-07T06:59:06;1.83;;;1.17;;
20241;SDS011;10279;46.388;8.116;2022-12-07T07:01:34;1.47;;;1.13;;
20241;SDS011;10279;46.388;8.116;2022-12-07T07:04:02;2.40;;;1.40;;
20241;SDS011;10279;46.388;8.116;2022-12-07T07:06:30;2.20;;;1.37;;
20241;SDS011;10279;46.388;8.116;2022-12-07T07:08:57;2.50;;;1.43;;
20241;SDS011;10279;46.388;8.116;2022-12-07T07:11:25;2.10;;;1.30;;
20241;SDS011;10279;46.388;8.116;2022-12-07T07:13:52;2.77;;;1.57;;
20241;SDS011;10279;46.388;8.116;2022-12-07T07:16:23;1.27;;;0.90;;
20241;SDS011;10279;46.388;8.116;2022-12-07T07:18:50;1.77;;;1.23;;
20241;SDS011;10279;46.388;8.116;2022-12-07T07:21:18;2.40;;;1.80;;
20241;SDS011;10279;46.388;8.116;2022-12-07T07:23:45;2.90;;;1.50;;
20241;SDS011;10279;46.388;8.116;2022-12-07T07:26:12;3.10;;;1.13;;
20241;SDS011;10279;46.388;8.116;2022-12-07T07:28:48;2.43;;;1.33;;
20241;SDS011;10279;46.388;8.116;2022-12-07T07:31:15;3.17;;;1.40;;
20241;SDS011;10279;46.388;8.116;2022-12-07T07:33:42;3.37;;;1.50;;
20241;SDS011;10279;46.388;8.116;2022-12-07T07:36:10;2.20;;;1.53;;
20241;SDS011;10279;46.388;8.116;2022-12-07T07:38:37;2.53;;;1.33;;
20241;SDS011;10279;46.388;8.116;2022-12-07T07:41:05;5.37;;;1.77;;
20241;SDS011;10279;46.388;8.116;2022-12-07T07:43:32;2.07;;;1.53;;
20241;SDS011;10279;46.388;8.116;2022-12-07T07:46:00;2.87;;;1.60;;
20241;SDS011;10279;46.388;8.116;2022-12-07T07:48:27;2.80;;;1.60;;
20241;SDS011;10279;46.388;8.116;2022-12-07T07:50:55;15.03;;;6.17;;
20241;SDS011;10279;46.388;8.116;2022-12-07T07:53:22;14.83;;;6.00;;
20241;SDS011;10279;46.388;8.116;2022-12-07T07:55:52;6.07;;;2.60;;
20241;SDS011;10279;46.388;8.116;2022-12-07T07:58:20;5.17;;;1.90;;
20241;SDS011;10279;46.388;8.116;2022-12-07T08:00:48;5.10;;;1.40;;
20241;SDS011;10279;46.388;8.116;2022-12-07T08:03:15;5.27;;;2.47;;
20241;SDS011;10279;46.388;8.116;2022-12-07T08:05:43;3.37;;;1.90;;
20241;SDS011;10279;46.388;8.116;2022-12-07T08:08:10;2.03;;;1.30;;
20241;SDS011;10279;46.388;8.116;2022-12-07T08:10:38;2.67;;;1.60;;
20241;SDS011;10279;46.388;8.116;2022-12-07T08:13:06;2.30;;;2.03;;
20241;SDS011;10279;46.388;8.116;2022-12-07T08:15:43;2.20;;;1.80;;
20241;SDS011;10279;46.388;8.116;2022-12-07T08:18:11;2.80;;;1.80;;
20241;SDS011;10279;46.388;8.116;2022-12-07T08:20:39;2.57;;;1.67;;
20241;SDS011;10279;46.388;8.116;2022-12-07T08:23:07;1.70;;;1.60;;
20241;SDS011;10279;46.388;8.116;2022-12-07T08:25:35;2.17;;;1.40;;
20241;SDS011;10279;46.388;8.116;2022-12-07T08:28:02;1.90;;;1.43;;
20241;SDS011;10279;46.388;8.116;2022-12-07T08:30:30;1.50;;;1.37;;
20241;SDS011;10279;46.388;8.116;2022-12-07T08:32:57;2.23;;;1.50;;
20241;SDS011;10279;46.388;8.116;2022-12-07T08:35:25;3.10;;;1.93;;
20241;SDS011;10279;46.388;8.116;2022-12-07T08:37:52;2.50;;;1.60;;
20241;SDS011;10279;46.388;8.116;2022-12-07T08:40:19;2.03;;;1.40;;
20241;SDS011;10279;46.388;8.116;2022-12-07T08:42:50;2.50;;;1.67;;
20241;SDS011;10279;46.388;8.116;2022-12-07T08:45:18;1.93;;;1.40;;
20241;SDS011;10279;46.388;8.116;2022-12-07T08:48:03;1.50;;;1.40;;
20241;SDS011;10279;46.388;8.116;2022-12-07T08:50:32;2.47;;;1.57;;
20241;SDS011;10279;46.388;8.116;2022-12-07T08:53:00;3.77;;;1.50;;
20241;SDS011;10279;46.388;8.116;2022-12-07T08:55:28;2.40;;;1.20;;
20241;SDS011;10279;46.388;8.116;2022-12-07T08:57:57;2.50;;;0.97;;
20241;SDS011;10279;46.388;8.116;2022-12-07T09:00:24;12.03;;;4.37;;
20241;SDS011;10279;46.388;8.116;2022-12-07T09:02:53;58.00;;;24.20;;
20241;SDS011;10279;46.388;8.116;2022-12-07T09:05:20;101.43;;;43.63;;
20241;SDS011;10279;46.388;8.116;2022-12-07T09:07:50;79.93;;;37.93;;
20241;SDS011;10279;46.388;8.116;2022-12-07T09:10:18;25.03;;;11.67;;
20241;SDS011;10279;46.388;8.116;2022-12-07T09:12:46;26.13;;;13.77;;
20241;SDS011;10279;46.388;8.116;2022-12-07T09:15:13;6.67;;;4.23;;
20241;SDS011;10279;46.388;8.116;2022-12-07T09:17:43;2.63;;;1.87;;
20241;SDS011;10279;46.388;8.116;2022-12-07T09:20:11;5.77;;;2.73;;
20241;SDS011;10279;46.388;8.116;2022-12-07T09:22:38;8.80;;;3.87;;
20241;SDS011;10279;46.388;8.116;2022-12-07T09:25:05;5.47;;;2.80;;
20241;SDS011;10279;46.388;8.116;2022-12-07T09:27:33;12.03;;;4.57;;
20241;SDS011;10279;46.388;8.116;2022-12-07T09:30:01;23.87;;;10.73;;
20241;SDS011;10279;46.388;8.116;2022-12-07T09:32:29;11.00;;;5.83;;
20241;SDS011;10279;46.388;8.116;2022-12-07T09:34:56;47.10;;;16.03;;
20241;SDS011;10279;46.388;8.116;2022-12-07T09:37:24;38.40;;;13.03;;
20241;SDS011;10279;46.388;8.116;2022-12-07T09:39:51;65.37;;;25.13;;
20241;SDS011;10279;46.388;8.116;2022-12-07T09:42:41;27.57;;;11.23;;
20241;SDS011;10279;46.388;8.116;2022-12-07T09:45:07;25.57;;;10.27;;
20241;SDS011;10279;46.388;8.116;2022-12-07T09:47:39;56.37;;;21.33;;
20241;SDS011;10279;46.388;8.116;2022-12-07T09:50:17;40.27;;;17.07;;
20241;SDS011;10279;46.388;8.116;2022-12-07T09:52:49;15.73;;;6.30;;
20241;SDS011;10279;46.388;8.116;2022-12-07T09:55:27;13.27;;;4.83;;
20241;SDS011;10279;46.388;8.116;2022-12-07T09:57:55;13.03;;;6.97;;
20241;SDS011;10279;46.388;8.116;2022-12-07T10:00:23;7.03;;;3.97;;
20241;SDS011;10279;46.388;8.116;2022-12-07T10:03:00;2.90;;;1.77;;
20241;SDS011;10279;46.388;8.116;2022-12-07T10:05:29;2.57;;;1.30;;
20241;SDS011;10279;46.388;8.116;2022-12-07T10:07:58;1.30;;;1.00;;
20241;SDS011;10279;46.388;8.116;2022-12-07T10:10:26;1.90;;;1.13;;
20241;SDS011;10279;46.388;8.116;2022-12-07T10:13:02;1.93;;;0.87;;
20241;SDS011;10279;46.388;8.116;2022-12-07T10:18:20;1.10;;;0.90;;
20241;SDS011;10279;46.388;8.116;2022-12-07T10:20:47;0.83;;;0.70;;
20241;SDS011;10279;46.388;8.116;2022-12-07T10:23:16;1.60;;;0.90;;
20241;SDS011;10279;46.388;8.116;2022-12-07T10:25:45;1.63;;;0.97;;
20241;SDS011;10279;46.388;8.116;2022-12-07T10:28:15;3.10;;;1.67;;
20241;SDS011;10279;46.388;8.116;2022-12-07T10:33:29;3.73;;;1.97;;
20241;SDS011;10279;46.388;8.116;2022-12-07T10:35:57;2.03;;;1.47;;
20241;SDS011;10279;46.388;8.116;2022-12-07T10:38:26;4.00;;;1.63;;
20241;SDS011;10279;46.388;8.116;2022-12-07T10:41:03;3.03;;;1.63;;
20241;SDS011;10279;46.388;8.116;2022-12-07T10:43:31;2.37;;;1.60;;
20241;SDS011;10279;46.388;8.116;2022-12-07T11:03:53;3.90;;;2.17;;
20241;SDS011;10279;46.388;8.116;2022-12-07T11:06:25;3.07;;;1.80;;
20241;SDS011;10279;46.388;8.116;2022-12-07T11:13:53;12.53;;;6.13;;
20241;SDS011;10279;46.388;8.116;2022-12-07T11:24:10;1.43;;;0.80;;
20241;SDS011;10279;46.388;8.116;2022-12-07T11:29:26;2.27;;;1.37;;
20241;SDS011;10279;46.388;8.116;2022-12-07T11:31:58;1.10;;;0.97;;
20241;SDS011;10279;46.388;8.116;2022-12-07T11:34:49;1.03;;;0.70;;
20241;SDS011;10279;46.388;8.116;2022-12-07T11:37:23;2.17;;;0.60;;
20241;SDS011;10279;46.388;8.116;2022-12-07T11:39:55;1.97;;;0.80;;
20241;SDS011;10279;46.388;8.116;2022-12-07T11:42:28;3.57;;;0.97;;
20241;SDS011;10279;46.388;8.116;2022-12-07T11:45:01;0.57;;;0.57;;
20241;SDS011;10279;46.388;8.116;2022-12-07T12:00:54;2.20;;;0.77;;
20241;SDS011;10279;46.388;8.116;2022-12-07T12:03:28;1.33;;;0.60;;
20241;SDS011;10279;46.388;8.116;2022-12-07T12:05:58;0.77;;;0.57;;
20241;SDS011;10279;46.388;8.116;2022-12-07T12:08:33;0.70;;;0.50;;
20241;SDS011;10279;46.388;8.116;2022-12-07T12:22:03;2.93;;;0.80;;
20241;SDS011;10279;46.388;8.116;2022-12-07T12:24:32;2.00;;;0.77;;
20241;SDS011;10279;46.388;8.116;2022-12-07T12:27:04;1.90;;;0.70;;
20241;SDS011;10279;46.388;8.116;2022-12-07T12:29:36;3.13;;;0.80;;
20241;SDS011;10279;46.388;8.116;2022-12-07T12:32:11;0.57;;;0.50;;
20241;SDS011;10279;46.388;8.116;2022-12-07T12:34:42;1.33;;;0.50;;
20241;SDS011;10279;46.388;8.116;2022-12-07T12:42:44;0.50;;;0.50;;
20241;SDS011;10279;46.388;8.116;2022-12-07T12:45:21;2.27;;;0.90;;
20241;SDS011;10279;46.388;8.116;2022-12-07T12:47:52;2.37;;;0.83;;
20241;SDS011;10279;46.388;8.116;2022-12-07T12:50:24;2.17;;;0.60;;
20241;SDS011;10279;46.388;8.116;2022-12-07T12:52:57;0.60;;;0.60;;
20241;SDS011;10279;46.388;8.116;2022-12-07T13:00:49;0.30;;;0.30;;
20241;SDS011;10279;46.388;8.116;2022-12-07T13:03:35;0.40;;;0.40;;
20241;SDS011;10279;46.388;8.116;2022-12-07T13:08:49;0.20;;;0.20;;
20241;SDS011;10279;46.388;8.116;2022-12-07T13:11:29;0.30;;;0.23;;
20241;SDS011;10279;46.388;8.116;2022-12-07T13:16:45;0.20;;;0.20;;
20241;SDS011;10279;46.388;8.116;2022-12-07T13:21:59;0.77;;;0.20;;
20241;SDS011;10279;46.388;8.116;2022-12-07T13:24:26;0.30;;;0.30;;
20241;SDS011;10279;46.388;8.116;2022-12-07T13:26:54;0.20;;;0.20;;
20241;SDS011;10279;46.388;8.116;2022-12-07T13:29:23;0.30;;;0.30;;
20241;SDS011;10279;46.388;8.116;2022-12-07T13:36:55;0.30;;;0.30;;
20241;SDS011;10279;46.388;8.116;2022-12-07T13:39:24;0.93;;;0.33;;
20241;SDS011;10279;46.388;8.116;2022-12-07T13:41:53;0.30;;;0.30;;
20241;SDS011;10279;46.388;8.116;2022-12-07T13:44:21;0.63;;;0.30;;
20241;SDS011;10279;46.388;8.116;2022-12-07T13:49:23;0.67;;;0.23;;
20241;SDS011;10279;46.388;8.116;2022-12-07T13:51:51;0.40;;;0.30;;
20241;SDS011;10279;46.388;8.116;2022-12-07T13:54:19;0.60;;;0.30;;
20241;SDS011;10279;46.388;8.116;2022-12-07T13:56:48;3.13;;;0.60;;
20241;SDS011;10279;46.388;8.116;2022-12-07T13:59:21;1.33;;;0.63;;
20241;SDS011;10279;46.388;8.116;2022-12-07T14:01:53;1.10;;;0.67;;
20241;SDS011;10279;46.388;8.116;2022-12-07T14:04:36;3.67;;;0.70;;
20241;SDS011;10279;46.388;8.116;2022-12-07T14:10:22;0.87;;;0.67;;
20241;SDS011;10279;46.388;8.116;2022-12-07T14:12:50;1.63;;;0.77;;
20241;SDS011;10279;46.388;8.116;2022-12-07T14:15:19;0.87;;;0.80;;
20241;SDS011;10279;46.388;8.116;2022-12-07T14:17:51;0.90;;;0.80;;
20241;SDS011;10279;46.388;8.116;2022-12-07T14:20:33;2.33;;;0.80;;
20241;SDS011;10279;46.388;8.116;2022-12-07T14:23:01;2.57;;;0.70;;
20241;SDS011;10279;46.388;8.116;2022-12-07T14:25:45;1.90;;;0.80;;
20241;SDS011;10279;46.388;8.116;2022-12-07T14:28:33;1.17;;;0.60;;
20241;SDS011;10279;46.388;8.116;2022-12-07T14:31:01;1.10;;;0.70;;
20241;SDS011;10279;46.388;8.116;2022-12-07T14:33:28;0.60;;;0.60;;
20241;SDS011;10279;46.388;8.116;2022-12-07T14:35:56;2.57;;;0.90;;
20241;SDS011;10279;46.388;8.116;2022-12-07T14:38:25;1.23;;;0.60;;
20241;SDS011;10279;46.388;8.116;2022-12-07T14:40:52;2.27;;;0.70;;
20241;SDS011;10279;46.388;8.116;2022-12-07T14:43:20;1.33;;;0.70;;
20241;SDS011;10279;46.388;8.116;2022-12-07T14:45:49;1.20;;;0.60;;
20241;SDS011;10279;46.388;8.116;2022-12-07T14:48:17;1.20;;;0.63;;
20241;SDS011;10279;46.388;8.116;2022-12-07T14:51:04;0.70;;;0.70;;
20241;SDS011;10279;46.388;8.116;2022-12-07T14:53:52;1.00;;;0.60;;
20241;SDS011;10279;46.388;8.116;2022-12-07T14:56:23;0.50;;;0.40;;
20241;SDS011;10279;46.388;8.116;2022-12-07T14:58:50;0.80;;;0.60;;
20241;SDS011;10279;46.388;8.116;2022-12-07T15:01:21;0.60;;;0.50;;
20241;SDS011;10279;46.388;8.116;2022-12-07T15:03:48;0.70;;;0.60;;
20241;SDS011;10279;46.388;8.116;2022-12-07T15:06:17;0.60;;;0.47;;
20241;SDS011;10279;46.388;8.116;2022-12-07T15:08:45;1.40;;;0.90;;
20241;SDS011;10279;46.388;8.116;2022-12-07T15:11:16;2.73;;;0.97;;
20241;SDS011;10279;46.388;8.116;2022-12-07T15:13:44;2.00;;;1.30;;
20241;SDS011;10279;46.388;8.116;2022-12-07T15:16:30;2.03;;;1.13;;
20241;SDS011;10279;46.388;8.116;2022-12-07T15:19:19;3.13;;;1.17;;
20241;SDS011;10279;46.388;8.116;2022-12-07T15:21:55;3.03;;;1.00;;
20241;SDS011;10279;46.388;8.116;2022-12-07T15:24:22;1.70;;;0.87;;
20241;SDS011;10279;46.388;8.116;2022-12-07T15:26:50;3.37;;;1.10;;
20241;SDS011;10279;46.388;8.116;2022-12-07T15:29:18;3.43;;;1.20;;
20241;SDS011;10279;46.388;8.116;2022-12-07T15:31:52;1.87;;;0.90;;
20241;SDS011;10279;46.388;8.116;2022-12-07T15:34:23;2.30;;;1.30;;
20241;SDS011;10279;46.388;8.116;2022-12-07T15:36:51;0.90;;;0.90;;
20241;SDS011;10279;46.388;8.116;2022-12-07T15:39:19;2.10;;;1.20;;
20241;SDS011;10279;46.388;8.116;2022-12-07T15:41:46;2.07;;;0.93;;
20241;SDS011;10279;46.388;8.116;2022-12-07T15:44:14;2.17;;;1.17;;
20241;SDS011;10279;46.388;8.116;2022-12-07T15:47:00;2.03;;;1.23;;
20241;SDS011;10279;46.388;8.116;2022-12-07T15:49:27;3.03;;;1.30;;
20241;SDS011;10279;46.388;8.116;2022-12-07T15:51:55;1.47;;;1.03;;
20241;SDS011;10279;46.388;8.116;2022-12-07T15:54:24;1.63;;;0.90;;
20241;SDS011;10279;46.388;8.116;2022-12-07T15:56:52;1.33;;;0.80;;
20241;SDS011;10279;46.388;8.116;2022-12-07T15:59:19;1.70;;;1.00;;
20241;SDS011;10279;46.388;8.116;2022-12-07T16:01:47;2.07;;;0.93;;
20241;SDS011;10279;46.388;8.116;2022-12-07T16:04:14;1.17;;;0.97;;
20241;SDS011;10279;46.388;8.116;2022-12-07T16:06:42;1.07;;;0.67;;
20241;SDS011;10279;46.388;8.116;2022-12-07T16:09:10;2.07;;;0.90;;
20241;SDS011;10279;46.388;8.116;2022-12-07T16:11:37;0.73;;;0.63;;
20241;SDS011;10279;46.388;8.116;2022-12-07T16:14:05;2.00;;;1.20;;
20241;SDS011;10279;46.388;8.116;2022-12-07T16:16:32;2.67;;;1.00;;
20241;SDS011;10279;46.388;8.116;2022-12-07T16:18:59;1.00;;;0.90;;
20241;SDS011;10279;46.388;8.116;2022-12-07T16:21:27;2.13;;;1.47;;
20241;SDS011;10279;46.388;8.116;2022-12-07T16:23:56;3.80;;;1.30;;
20241;SDS011;10279;46.388;8.116;2022-12-07T16:26:25;1.40;;;1.23;;
20241;SDS011;10279;46.388;8.116;2022-12-07T16:28:52;3.60;;;1.70;;
20241;SDS011;10279;46.388;8.116;2022-12-07T16:31:22;4.13;;;2.20;;
20241;SDS011;10279;46.388;8.116;2022-12-07T16:33:50;7.57;;;3.70;;
20241;SDS011;10279;46.388;8.116;2022-12-07T16:36:17;5.40;;;3.43;;
20241;SDS011;10279;46.388;8.116;2022-12-07T16:39:05;5.17;;;2.50;;
20241;SDS011;10279;46.388;8.116;2022-12-07T16:41:33;3.47;;;2.30;;
20241;SDS011;10279;46.388;8.116;2022-12-07T16:44:04;5.70;;;2.23;;
20241;SDS011;10279;46.388;8.116;2022-12-07T16:46:32;3.73;;;2.20;;
20241;SDS011;10279;46.388;8.116;2022-12-07T16:49:00;6.33;;;2.23;;
20241;SDS011;10279;46.388;8.116;2022-12-07T16:51:27;3.10;;;2.10;;
20241;SDS011;10279;46.388;8.116;2022-12-07T16:53:54;2.27;;;1.63;;
20241;SDS011;10279;46.388;8.116;2022-12-07T16:56:22;2.83;;;2.20;;
20241;SDS011;10279;46.388;8.116;2022-12-07T16:58:50;2.23;;;1.77;;
20241;SDS011;10279;46.388;8.116;2022-12-07T17:01:18;3.17;;;2.30;;
20241;SDS011;10279;46.388;8.116;2022-12-07T17:03:46;3.07;;;2.17;;